Aviation Digital Data Service (ADDS)

Output produced by METARs form (1826 UTC 16 August 2018)
found at http://www.aviationweather.gov/adds/metars/
 
TAF COR SCFA 161750Z 1618/1718 21010KT 9999 FEW026 TX16/1618Z TN13/ 1706Z 
     BECMG 1622/1700 BKN022 
     BECMG 1702/1704 17004KT OVC015 
     BECMG 1715/1717 21015KT SCT023
       
TAF SCAR 161610Z 1618/1718 21010KT CAVOK TX18/1618Z TN15/1706Z 
     BECMG 1622/1700 OVC023 
     BECMG 1700/1702 18004KT 
     BECMG 1704/1706 13004KT 
     BECMG 1710/1712 08004KT 
     BECMG 1716/1718 21010KT FEW023
       
TAF AMD SCBA 161653Z 1618/1718 29025G35KT CAVOK TX10/1618Z TN00/1712Z 
     BECMG 1714/1716 28010KT
       
TAF SCCF 161630Z 1618/1718 27018KT CAVOK TX23/1618Z TN04/1706Z 
     BECMG 1703/1705 11020KT 
     BECMG 1715/1716 11010KT 
     BECMG 1717/1718 27018KT
       
TAF SCIE 161628Z 1618/1718 15007KT 9999 SCT017 BKN170 TX14/1618Z TN07/1711Z 
     TEMPO 1618/1622 24004KT CAVOK 
     BECMG 1700/1702 BKN020 BKN100 
     BECMG 1706/1708 34007KT BKN010 BKN050 
     TEMPO 1708/1713 02008KT 3000 DZ OVC010 
     BECMG 1715/1717 SCT015 BKN020
       
TAF SCAT 161610Z 1618/1718 26008KT 9999 BKN017 TX14/1618Z TN10/1706Z 
     BECMG 1620/1622 FEW017 
     BECMG 1700/1702 20004KT 
     BECMG 1704/1706 12004KT 6000 OVC003 
     BECMG 1712/1714 20004KT 8000 BKN006 
     BECMG 1716/ 1718 26008KT CAVOK
       
TAF SCCY 161027Z 1612/1624 36005KT 7000 -RA OVC020 TN06/1612Z TX13/1618Z 
     BECMG 1615/1617 33005KT 9999 NSW BKN030 
     BECMG 1622/1624 SCT035
       
TAF SCDA 161610Z 1618/1718 26012KT 9999 FEW030 TX17/1618Z TN15/1706Z 
     BECMG 1622/1700 23004KT OVC023 
     BECMG 1708/1710 17006KT 
     BECMG 1716/ 1718 23016KT SCT030
       
TAF SCSE 161635Z 1618/1718 29007KT 9999 FEW012 BKN017 TX13/1619Z TN10 /1711Z 
     BECMG 1701/1703 14003KT BKN010 OVC015 
     TEMPO 1708/1714 4000 BR OVC005 
     BECMG 1615/1717 29004KT SCT015
       
TAF SCJO 161025Z 1612/1624 02005KT 9999 SCT018 BKN030 TN05/1612Z TX10/1618Z 
     BECMG 1612/1614 02010KT 6000 -RA SCT015 OVC025 
     BECMG 1619/1621 32005KT 9999 NWS BKN025
       
TAF SCTE 161632Z 1618/1718 02012KT 9999 BKN020 OVC035 TX10/1618Z TN07/1712Z 
     TEMPO 1618/1621 8000 -SHRA BKN015 OVC020 
     TEMPO 1703/1709 6000 -SHRA BKN020 BKN030 
     BECMG 1712/1714 34010KT
       
TAF SCNT 161044Z 1612/1700 27015G25KT 9999 SCT025 TN02/1700Z TX07/1618Z 
     BECMG 1613/1615 FEW040 
     BECMG 1622/1700 32010G20KT 9000 SCT025
       
TAF SCCI 161633Z 1618/1718 28016G26KT 9999 SCT033 TX06/1618Z TN01/1710Z 
     TEMPO 1618/1620 25020KT 
     TEMPO 1621/1701 31015G25KT 
     BECMG 1701/1703 34015G25KT 
     PROB30 
     TEMPO 1701/1704 9000 -SHRA BKN025 
     BECMG 1709/1711 28020G30KT
       
TAF SCEL 161626Z 1618/1718 20008KT CAVOK TX24/1619Z TN05/1711Z 
     BECMG 1702/1704 16004KT 8000 NSC 
     TEMPO 1708/1714 VRB02KT 4000 BR NSC 
     BECMG 1716/1718 18007KT BKN180